Time;durP1;ratioP1;P1;durP2;ratioP2;P2;SDS_P1;SDS_P2;PMS_P1;PMS_P2;Temp;Humidity;BMP_temperature;BMP_pressure;BME280_temperature;BME280_humidity;BME280_pressure;Samples;Min_cycle;Max_cycle;Signal;HPM_P1;HPM_P2
2024/03/29 01:45:30;;;;;;;0.20;0.20;;;;;;;;;;10435043;28;20127;-77
2024/03/29 01:50:33;;;;;;;0.20;0.20;;;;;;;;;;10444638;28;20052;-77
2024/03/29 01:55:36;;;;;;;0.63;0.35;;;;;;;;;;10448238;28;20045;-75
2024/03/29 02:00:39;;;;;;;0.60;0.47;;;;;;;;;;10448235;28;20029;-74
2024/03/29 02:05:43;;;;;;;0.40;0.40;;;;;;;;;;10445363;28;20346;-76
2024/03/29 02:10:48;;;;;;;3.70;0.30;;;;;;;;;;10446754;28;20037;-76
2024/03/29 02:15:52;;;;;;;0.20;0.20;;;;;;;;;;10450349;28;20045;-76
2024/03/29 02:20:55;;;;;;;0.32;0.22;;;;;;;;;;10449233;28;20486;-77
2024/03/29 02:25:59;;;;;;;0.10;0.00;;;;;;;;;;10439813;28;20045;-76
2024/03/29 02:31:03;;;;;;;1.10;0.20;;;;;;;;;;10443538;28;20136;-77
2024/03/29 02:36:09;;;;;;;0.37;0.30;;;;;;;;;;10440995;28;20044;-75
2024/03/29 02:41:12;;;;;;;0.20;0.20;;;;;;;;;;10462925;28;22069;-75
2024/03/29 02:46:14;;;;;;;0.20;0.20;;;;;;;;;;10459776;28;20059;-75
2024/03/29 02:51:16;;;;;;;0.20;0.10;;;;;;;;;;10444376;28;20065;-76
2024/03/29 02:56:23;;;;;;;0.10;0.10;;;;;;;;;;10459356;28;20040;-76
2024/03/29 03:01:25;;;;;;;0.32;0.28;;;;;;;;;;10455133;28;20613;-77
2024/03/29 03:06:26;;;;;;;1.35;0.65;;;;;;;;;;10442660;28;20048;-76
2024/03/29 03:11:30;;;;;;;0.50;0.50;;;;;;;;;;10433854;28;20056;-78
2024/03/29 03:16:32;;;;;;;0.40;0.40;;;;;;;;;;10443696;28;20036;-75
2024/03/29 03:21:33;;;;;;;0.10;0.10;;;;;;;;;;10427433;28;20053;-76
2024/03/29 03:26:36;;;;;;;3.03;0.50;;;;;;;;;;10439949;28;20036;-75
2024/03/29 03:31:38;;;;;;;0.43;0.15;;;;;;;;;;10442900;28;20033;-76
2024/03/29 03:36:40;;;;;;;1.00;0.57;;;;;;;;;;10441915;28;20041;-76
2024/03/29 03:41:44;;;;;;;0.52;0.43;;;;;;;;;;10441099;28;20040;-76
2024/03/29 03:46:46;;;;;;;1.50;1.10;;;;;;;;;;10438056;28;20044;-76
2024/03/29 03:51:48;;;;;;;1.30;0.80;;;;;;;;;;10449576;28;20465;-76
2024/03/29 03:56:51;;;;;;;1.48;0.68;;;;;;;;;;10421017;28;20075;-76
2024/03/29 04:01:56;;;;;;;0.63;0.60;;;;;;;;;;10444705;28;20044;-79
2024/03/29 04:06:58;;;;;;;0.65;0.60;;;;;;;;;;10412682;28;20045;-75
2024/03/29 04:12:01;;;;;;;0.68;0.50;;;;;;;;;;10438207;28;20041;-78
2024/03/29 04:17:04;;;;;;;0.30;0.20;;;;;;;;;;10446190;28;20056;-75
2024/03/29 04:22:06;;;;;;;0.52;0.43;;;;;;;;;;10438311;28;20056;-75
2024/03/29 04:27:09;;;;;;;0.93;0.73;;;;;;;;;;10440821;28;20049;-76
2024/03/29 04:32:11;;;;;;;1.10;0.70;;;;;;;;;;10436833;28;20045;-75
2024/03/29 04:37:13;;;;;;;0.57;0.40;;;;;;;;;;10428044;28;20068;-75
2024/03/29 04:42:16;;;;;;;0.20;0.20;;;;;;;;;;10443980;28;20436;-75
2024/03/29 04:47:18;;;;;;;0.67;0.50;;;;;;;;;;10442553;28;20074;-76
2024/03/29 04:52:22;;;;;;;0.25;0.20;;;;;;;;;;10444408;28;20094;-77
2024/03/29 04:57:25;;;;;;;0.17;0.13;;;;;;;;;;10446522;28;20041;-76
2024/03/29 05:02:28;;;;;;;;;;;;;;;;;;10446698;28;20037;-76
2024/03/29 05:07:29;;;;;;;0.65;0.40;;;;;;;;;;10440545;28;20413;-75
2024/03/29 05:12:32;;;;;;;0.50;0.30;;;;;;;;;;10438500;28;20041;-76
2024/03/29 05:17:36;;;;;;;0.25;0.20;;;;;;;;;;10448501;28;20056;-76
2024/03/29 05:22:38;;;;;;;0.85;0.70;;;;;;;;;;10450370;28;20049;-75
2024/03/29 05:27:43;;;;;;;1.00;0.70;;;;;;;;;;10445579;28;20497;-74
2024/03/29 05:32:52;;;;;;;0.75;0.35;;;;;;;;;;10447917;28;20143;-76
2024/03/29 05:37:54;;;;;;;1.40;0.90;;;;;;;;;;10461023;28;20044;-75
2024/03/29 05:43:02;;;;;;;1.25;0.70;;;;;;;;;;10432483;28;20128;-78
2024/03/29 05:48:03;;;;;;;0.50;0.50;;;;;;;;;;10450061;28;20049;-82
2024/03/29 05:53:05;;;;;;;2.45;1.27;;;;;;;;;;10465041;28;20736;-77
2024/03/29 05:58:08;;;;;;;1.45;0.63;;;;;;;;;;10444961;28;20068;-75
2024/03/29 06:03:12;;;;;;;1.87;1.00;;;;;;;;;;10440757;28;20124;-76
2024/03/29 06:08:13;;;;;;;1.77;0.90;;;;;;;;;;10420931;28;20123;-75
2024/03/29 06:13:29;;;;;;;0.60;0.40;;;;;;;;;;10447291;28;20106;-75
2024/03/29 06:18:31;;;;;;;0.88;0.88;;;;;;;;;;10445736;28;20071;-76
2024/03/29 06:23:33;;;;;;;1.15;0.43;;;;;;;;;;10450486;28;20634;-77
2024/03/29 06:28:37;;;;;;;0.40;0.40;;;;;;;;;;10457846;28;20053;-76
2024/03/29 06:33:39;;;;;;;2.80;1.00;;;;;;;;;;10459845;28;20048;-75
2024/03/29 06:38:41;;;;;;;0.43;0.40;;;;;;;;;;10447476;28;20501;-76
2024/03/29 06:43:45;;;;;;;1.88;0.88;;;;;;;;;;10421721;28;20028;-78
2024/03/29 06:48:49;;;;;;;0.50;0.40;;;;;;;;;;10453279;28;20045;-77
2024/03/29 06:53:51;;;;;;;1.33;0.90;;;;;;;;;;10431556;28;20360;-78
2024/03/29 06:58:54;;;;;;;1.00;0.68;;;;;;;;;;10468163;28;20047;-77
2024/03/29 07:03:56;;;;;;;0.93;0.87;;;;;;;;;;10443910;28;20040;-80
2024/03/29 07:08:59;;;;;;;0.90;0.68;;;;;;;;;;10447271;28;20302;-77
2024/03/29 07:14:04;;;;;;;0.60;0.60;;;;;;;;;;10447578;28;20490;-77
2024/03/29 07:19:06;;;;;;;0.70;0.70;;;;;;;;;;10440356;28;20409;-78
2024/03/29 07:24:09;;;;;;;0.98;0.80;;;;;;;;;;10428092;28;20393;-78
2024/03/29 07:29:14;;;;;;;0.90;0.80;;;;;;;;;;10455684;28;20536;-78
2024/03/29 07:34:16;;;;;;;1.20;1.00;;;;;;;;;;10439220;28;20139;-78
2024/03/29 07:39:17;;;;;;;1.40;1.20;;;;;;;;;;10462544;28;20476;-76
2024/03/29 07:44:23;;;;;;;1.35;1.10;;;;;;;;;;10456149;28;20062;-76
2024/03/29 07:49:25;;;;;;;1.30;1.20;;;;;;;;;;10448141;28;20050;-79
2024/03/29 07:54:29;;;;;;;1.65;0.88;;;;;;;;;;10459189;28;20037;-78
2024/03/29 07:59:38;;;;;;;1.67;1.20;;;;;;;;;;10444968;28;20040;-83
2024/03/29 08:04:42;;;;;;;0.77;0.77;;;;;;;;;;10452451;28;20511;-78
2024/03/29 08:09:44;;;;;;;0.82;0.82;;;;;;;;;;10446904;28;20049;-79
2024/03/29 08:14:48;;;;;;;0.70;0.70;;;;;;;;;;10467414;28;20196;-79
2024/03/29 08:19:50;;;;;;;1.10;0.80;;;;;;;;;;10445449;28;20489;-78
2024/03/29 08:24:51;;;;;;;1.10;0.90;;;;;;;;;;10437661;28;20060;-79
2024/03/29 08:29:58;;;;;;;0.65;0.65;;;;;;;;;;10443774;28;20032;-81
2024/03/29 08:35:00;;;;;;;0.40;0.40;;;;;;;;;;10443297;28;20436;-79
2024/03/29 08:40:02;;;;;;;0.70;0.70;;;;;;;;;;10440778;28;20052;-79
2024/03/29 08:45:08;;;;;;;2.25;0.90;;;;;;;;;;10435153;28;20040;-79
2024/03/29 08:50:10;;;;;;;0.75;0.73;;;;;;;;;;10452638;28;20120;-78
2024/03/29 08:55:16;;;;;;;1.67;0.80;;;;;;;;;;10456079;28;20059;-80
2024/03/29 09:00:19;;;;;;;0.73;0.57;;;;;;;;;;10438508;28;20036;-80
2024/03/29 09:05:23;;;;;;;1.25;0.80;;;;;;;;;;10442592;28;20048;-79
2024/03/29 09:10:26;;;;;;;1.85;0.70;;;;;;;;;;10446369;28;20040;-78
2024/03/29 09:15:29;;;;;;;0.73;0.65;;;;;;;;;;10442089;28;20501;-78
2024/03/29 09:20:31;;;;;;;1.23;1.00;;;;;;;;;;10444514;28;20040;-80
2024/03/29 09:25:33;;;;;;;1.07;0.90;;;;;;;;;;10463325;28;20045;-82
2024/03/29 09:30:36;;;;;;;0.83;0.80;;;;;;;;;;10445622;28;20509;-81
2024/03/29 09:35:38;;;;;;;2.15;0.70;;;;;;;;;;10453185;28;20052;-80
2024/03/29 09:40:40;;;;;;;0.80;0.80;;;;;;;;;;10442550;28;20151;-81
2024/03/29 09:45:43;;;;;;;;;;;;;;;;;;10445169;28;20037;-81
2024/03/29 09:50:46;;;;;;;1.00;0.90;;;;;;;;;;10457157;28;19974;-81
2024/03/29 09:55:48;;;;;;;1.20;0.70;;;;;;;;;;10436148;28;20084;-80
2024/03/29 10:00:51;;;;;;;1.33;0.70;;;;;;;;;;10443070;28;20099;-81
2024/03/29 10:05:55;;;;;;;1.23;0.80;;;;;;;;;;10455971;28;20040;-81
2024/03/29 10:10:57;;;;;;;0.82;0.60;;;;;;;;;;10450920;28;20087;-82
2024/03/29 10:15:58;;;;;;;0.97;0.70;;;;;;;;;;10442794;28;20041;-81
2024/03/29 10:21:06;;;;;;;2.53;1.00;;;;;;;;;;10449652;28;20074;-81
2024/03/29 10:26:09;;;;;;;1.38;0.82;;;;;;;;;;10441168;28;20049;-83
2024/03/29 10:31:13;;;;;;;2.08;1.10;;;;;;;;;;10447466;28;20033;-82
2024/03/29 10:36:18;;;;;;;0.43;0.43;;;;;;;;;;10447888;28;20048;-81
2024/03/29 10:41:28;;;;;;;1.17;0.50;;;;;;;;;;10428319;28;20033;-83
2024/03/29 10:46:36;;;;;;;0.68;0.68;;;;;;;;;;10433742;28;20504;-81
2024/03/29 10:51:40;;;;;;;0.70;0.68;;;;;;;;;;10463547;28;20052;-82
2024/03/29 10:56:44;;;;;;;0.50;0.50;;;;;;;;;;10457521;28;20358;-81
2024/03/29 11:01:49;;;;;;;1.55;0.82;;;;;;;;;;10444914;28;20048;-82
2024/03/29 11:06:58;;;;;;;0.45;0.40;;;;;;;;;;10465235;28;20044;-84
2024/03/29 11:12:02;;;;;;;3.00;0.70;;;;;;;;;;10483612;28;20032;-84
2024/03/29 11:17:05;;;;;;;0.60;0.47;;;;;;;;;;10485013;28;20045;-83
2024/03/29 11:22:10;;;;;;;0.30;0.30;;;;;;;;;;10460628;28;20036;-84
2024/03/29 11:27:12;;;;;;;0.65;0.30;;;;;;;;;;10456021;28;20093;-84
2024/03/29 11:32:15;;;;;;;0.75;0.50;;;;;;;;;;10455475;28;20572;-82
2024/03/29 11:37:19;;;;;;;1.70;0.30;;;;;;;;;;10434437;28;20413;-83
2024/03/29 11:42:35;;;;;;;1.15;0.30;;;;;;;;;;10445844;28;20037;-83
2024/03/29 11:47:40;;;;;;;0.30;0.30;;;;;;;;;;10447489;28;20051;-82
2024/03/29 11:52:49;;;;;;;0.30;0.30;;;;;;;;;;10446214;28;20490;-82
2024/03/29 11:57:54;;;;;;;1.80;0.90;;;;;;;;;;10443186;28;20163;-83
2024/03/29 12:02:57;;;;;;;1.60;0.30;;;;;;;;;;10443161;28;20389;-86
2024/03/29 12:07:59;;;;;;;;;;;;;;;;;;10441504;28;21785;-83
2024/03/29 12:13:02;;;;;;;0.52;0.52;;;;;;;;;;10459055;28;19920;-83
2024/03/29 12:18:05;;;;;;;0.57;0.50;;;;;;;;;;10442342;28;20090;-83
2024/03/29 12:23:08;;;;;;;1.02;0.90;;;;;;;;;;10443965;28;20040;-83
2024/03/29 12:28:10;;;;;;;;;;;;;;;;;;10437489;28;20044;-83
2024/03/29 12:33:14;;;;;;;1.10;1.00;;;;;;;;;;10436573;28;19925;-82
2024/03/29 12:38:17;;;;;;;0.70;0.65;;;;;;;;;;10434253;28;20045;-82
2024/03/29 12:43:18;;;;;;;;;;;;;;;;;;10430260;28;20040;-82
2024/03/29 12:48:34;;;;;;;0.85;0.80;;;;;;;;;;10451018;28;19928;-82
2024/03/29 12:53:38;;;;;;;0.90;0.90;;;;;;;;;;10431241;28;20501;-82
2024/03/29 12:58:48;;;;;;;0.68;0.68;;;;;;;;;;10449369;28;20037;-84
2024/03/29 13:03:52;;;;;;;0.80;0.80;;;;;;;;;;10441212;28;20036;-86
2024/03/29 13:08:56;;;;;;;1.00;1.00;;;;;;;;;;10455849;28;20049;-84
2024/03/29 13:13:58;;;;;;;1.10;1.10;;;;;;;;;;10438801;28;20393;-84
2024/03/29 13:19:03;;;;;;;0.80;0.80;;;;;;;;;;10443746;28;20036;-85
2024/03/29 13:24:05;;;;;;;1.58;0.90;;;;;;;;;;10456594;28;20042;-83
2024/03/29 13:29:08;;;;;;;0.50;0.50;;;;;;;;;;10438710;28;20056;-84
2024/03/29 13:34:12;;;;;;;;;;;;;;;;;;10453549;28;20040;-85
2024/03/29 13:39:23;;;;;;;0.88;0.73;;;;;;;;;;10463821;28;20372;-87
2024/03/29 13:44:25;;;;;;;0.47;0.47;;;;;;;;;;10447459;28;20052;-85
2024/03/29 13:49:33;;;;;;;0.50;0.38;;;;;;;;;;10461680;28;20125;-85
2024/03/29 13:54:43;;;;;;;0.60;0.60;;;;;;;;;;10444121;28;20462;-84
2024/03/29 13:59:44;;;;;;;0.60;0.60;;;;;;;;;;10445810;28;20037;-83
2024/03/29 14:04:47;;;;;;;0.20;0.20;;;;;;;;;;10463264;28;20044;-85
2024/03/29 14:09:50;;;;;;;0.47;0.20;;;;;;;;;;10425765;28;20053;-84
2024/03/29 14:14:53;;;;;;;4.00;0.50;;;;;;;;;;10437992;28;20422;-83
2024/03/29 14:19:54;;;;;;;0.20;0.20;;;;;;;;;;10453235;28;20048;-84
2024/03/29 14:24:58;;;;;;;0.40;0.20;;;;;;;;;;10429579;28;20091;-82
2024/03/29 14:29:59;;;;;;;0.85;0.55;;;;;;;;;;10442780;28;20053;-82
2024/03/29 14:35:01;;;;;;;0.30;0.20;;;;;;;;;;10443055;28;20382;-82
2024/03/29 14:40:05;;;;;;;0.20;0.20;;;;;;;;;;10436923;28;20941;-82
2024/03/29 14:45:07;;;;;;;0.20;0.13;;;;;;;;;;10459877;28;20029;-83
2024/03/29 14:50:09;;;;;;;0.20;0.20;;;;;;;;;;10446739;28;20049;-83
2024/03/29 14:55:13;;;;;;;0.20;0.20;;;;;;;;;;10445546;28;20048;-85
2024/03/29 15:00:15;;;;;;;0.30;0.15;;;;;;;;;;10450357;28;20032;-83
2024/03/29 15:05:17;;;;;;;0.40;0.40;;;;;;;;;;10455127;28;20045;-83
2024/03/29 15:10:21;;;;;;;0.30;0.30;;;;;;;;;;10430580;28;20105;-83
2024/03/29 15:15:23;;;;;;;0.40;0.40;;;;;;;;;;10433299;28;20045;-83
2024/03/29 15:20:24;;;;;;;1.80;0.30;;;;;;;;;;10455993;28;20044;-81
2024/03/29 15:25:27;;;;;;;0.65;0.20;;;;;;;;;;10454364;28;20373;-83
2024/03/29 15:30:30;;;;;;;1.75;0.50;;;;;;;;;;10440361;28;20473;-85
2024/03/29 15:35:33;;;;;;;0.38;0.28;;;;;;;;;;10440908;28;20511;-83
2024/03/29 15:40:36;;;;;;;0.38;0.30;;;;;;;;;;10444372;28;20497;-83
2024/03/29 15:45:38;;;;;;;0.40;0.40;;;;;;;;;;10448895;28;20043;-83
2024/03/29 15:50:41;;;;;;;1.00;0.40;;;;;;;;;;10439175;28;20049;-82
2024/03/29 15:55:44;;;;;;;2.00;0.22;;;;;;;;;;10455624;28;20036;-81
2024/03/29 16:00:46;;;;;;;1.00;0.68;;;;;;;;;;10443716;28;20041;-83
2024/03/29 16:05:48;;;;;;;0.90;0.40;;;;;;;;;;10451056;28;20044;-82
2024/03/29 16:10:55;;;;;;;2.35;0.57;;;;;;;;;;10461866;28;20094;-84
2024/03/29 16:15:57;;;;;;;5.10;0.75;;;;;;;;;;10464583;28;20425;-83
2024/03/29 16:20:59;;;;;;;4.10;0.97;;;;;;;;;;10472087;28;20044;-83
2024/03/29 16:26:03;;;;;;;1.45;0.60;;;;;;;;;;10479259;28;20044;-85
2024/03/29 16:31:05;;;;;;;5.05;1.15;;;;;;;;;;10471001;28;20127;-84
2024/03/29 16:36:07;;;;;;;3.67;1.00;;;;;;;;;;10465972;28;20111;-83
2024/03/29 16:41:11;;;;;;;7.07;2.10;;;;;;;;;;10466839;28;20045;-84
2024/03/29 16:46:12;;;;;;;6.78;2.20;;;;;;;;;;10474614;28;20044;-83
2024/03/29 16:51:14;;;;;;;9.77;2.15;;;;;;;;;;10474907;28;20032;-82
2024/03/29 16:56:17;;;;;;;14.65;2.47;;;;;;;;;;10473580;28;20045;-83
2024/03/29 17:01:19;;;;;;;11.82;2.42;;;;;;;;;;10470975;28;20045;-83
2024/03/29 17:06:21;;;;;;;22.15;3.55;;;;;;;;;;10484423;28;20041;-82
2024/03/29 17:11:26;;;;;;;20.77;4.07;;;;;;;;;;10487843;28;20051;-82
2024/03/29 17:16:28;;;;;;;27.73;4.85;;;;;;;;;;10482353;28;20096;-82
2024/03/29 17:21:30;;;;;;;13.88;3.47;;;;;;;;;;10480105;28;20036;-82
2024/03/29 17:26:36;;;;;;;22.42;3.85;;;;;;;;;;10491136;28;20051;-81
2024/03/29 17:31:40;;;;;;;23.88;3.42;;;;;;;;;;10478918;28;20106;-81
2024/03/29 17:36:43;;;;;;;8.93;1.95;;;;;;;;;;10484951;28;20124;-82
2024/03/29 17:41:48;;;;;;;12.52;2.25;;;;;;;;;;10469318;28;20025;-81
2024/03/29 17:46:50;;;;;;;;;;;;;;;;;;10479155;28;20052;-82
2024/03/29 17:51:52;;;;;;;25.80;3.72;;;;;;;;;;10480736;28;19981;-82
2024/03/29 17:56:57;;;;;;;23.95;3.92;;;;;;;;;;10487782;28;20052;-81
2024/03/29 18:02:00;;;;;;;18.73;3.00;;;;;;;;;;10482186;28;20119;-82
2024/03/29 18:07:02;;;;;;;12.85;2.58;;;;;;;;;;10499135;28;20044;-81
2024/03/29 18:12:08;;;;;;;32.15;4.45;;;;;;;;;;10522211;28;20100;-82
2024/03/29 18:17:10;;;;;;;32.13;4.30;;;;;;;;;;10502488;28;20075;-79
2024/03/29 18:22:12;;;;;;;19.27;2.33;;;;;;;;;;10501356;28;20032;-83
2024/03/29 18:27:15;;;;;;;14.07;2.15;;;;;;;;;;10497349;28;20086;-82
2024/03/29 18:32:17;;;;;;;18.15;2.58;;;;;;;;;;10492812;28;20032;-83
2024/03/29 18:37:19;;;;;;;21.15;2.75;;;;;;;;;;10481822;28;20044;-82
2024/03/29 18:42:22;;;;;;;21.00;3.13;;;;;;;;;;10471884;28;20040;-82
2024/03/29 18:47:24;;;;;;;33.70;4.85;;;;;;;;;;10457884;28;20037;-82
2024/03/29 18:52:26;;;;;;;23.60;3.22;;;;;;;;;;10462333;28;20039;-82
2024/03/29 18:57:30;;;;;;;34.95;6.53;;;;;;;;;;10469499;28;20197;-82
2024/03/29 19:02:32;;;;;;;32.30;4.90;;;;;;;;;;10464308;28;20043;-83
2024/03/29 19:07:34;;;;;;;14.65;2.38;;;;;;;;;;10490595;28;20463;-82
2024/03/29 19:12:38;;;;;;;26.63;5.07;;;;;;;;;;10502907;28;20043;-81
2024/03/29 19:17:41;;;;;;;28.58;4.10;;;;;;;;;;10486566;28;20107;-82
2024/03/29 19:22:42;;;;;;;20.80;3.95;;;;;;;;;;10492502;28;20044;-83
2024/03/29 19:27:45;;;;;;;28.30;4.10;;;;;;;;;;10507827;28;20488;-82
2024/03/29 19:32:55;;;;;;;31.98;4.97;;;;;;;;;;10487902;28;20037;-81
2024/03/29 19:38:02;;;;;;;46.55;7.03;;;;;;;;;;10477765;28;20045;-82
2024/03/29 19:43:05;;;;;;;41.07;6.23;;;;;;;;;;10472203;28;20033;-82
2024/03/29 19:48:07;;;;;;;;;;;;;;;;;;10460271;28;20196;-82
2024/03/29 19:53:12;;;;;;;43.28;7.90;;;;;;;;;;10487601;28;19931;-81
2024/03/29 19:58:15;;;;;;;57.97;6.88;;;;;;;;;;10487806;28;20053;-82
2024/03/29 20:03:17;;;;;;;41.00;6.35;;;;;;;;;;10479351;28;20128;-82
2024/03/29 20:08:19;;;;;;;46.22;5.13;;;;;;;;;;10467175;28;20493;-82
2024/03/29 20:13:23;;;;;;;30.90;4.82;;;;;;;;;;10438530;28;20090;-79
2024/03/29 20:18:24;;;;;;;42.75;6.35;;;;;;;;;;10442987;28;20166;-78
2024/03/29 20:23:31;;;;;;;36.15;5.45;;;;;;;;;;10455013;28;20517;-78
2024/03/29 20:28:34;;;;;;;35.03;6.78;;;;;;;;;;10437423;28;20330;-77
2024/03/29 20:33:36;;;;;;;49.65;6.05;;;;;;;;;;10442565;28;20058;-77
2024/03/29 20:38:38;;;;;;;42.40;6.05;;;;;;;;;;10437846;28;20085;-78
2024/03/29 20:43:42;;;;;;;48.63;7.13;;;;;;;;;;10443000;28;20040;-77
2024/03/29 20:48:52;;;;;;;48.35;6.47;;;;;;;;;;10440122;28;20037;-78
2024/03/29 20:53:54;;;;;;;49.45;8.60;;;;;;;;;;10441807;28;20597;-76
2024/03/29 20:59:00;;;;;;;44.35;7.30;;;;;;;;;;10441712;28;20044;-79
2024/03/29 21:09:22;;;;;;;35.92;4.97;;;;;;;;;;10440662;28;20545;-77
2024/03/29 21:14:26;;;;;;;28.37;5.50;;;;;;;;;;10464100;28;20045;-76
2024/03/29 21:19:30;;;;;;;45.08;6.32;;;;;;;;;;10425028;28;20052;-77
2024/03/29 21:24:44;;;;;;;31.33;5.70;;;;;;;;;;10446827;28;20039;-77
2024/03/29 21:29:47;;;;;;;27.08;5.05;;;;;;;;;;10443557;28;20103;-78
2024/03/29 21:34:49;;;;;;;38.80;5.70;;;;;;;;;;10453710;28;20032;-79
2024/03/29 21:39:51;;;;;;;55.55;6.72;;;;;;;;;;10450550;28;20048;-78
2024/03/29 21:44:58;;;;;;;24.25;3.97;;;;;;;;;;10429218;28;20789;-78
2024/03/29 21:50:01;;;;;;;45.03;7.53;;;;;;;;;;10441174;28;20044;-79
2024/03/29 21:55:02;;;;;;;60.37;8.90;;;;;;;;;;10428758;28;20465;-79
2024/03/29 22:00:15;;;;;;;54.20;6.63;;;;;;;;;;10446093;28;20106;-77
2024/03/29 22:05:17;;;;;;;52.80;8.20;;;;;;;;;;10450512;28;20063;-77
2024/03/29 22:10:19;;;;;;;67.63;8.98;;;;;;;;;;10450111;28;20041;-79
2024/03/29 22:15:24;;;;;;;44.97;7.28;;;;;;;;;;10445243;28;20040;-77
2024/03/29 22:20:26;;;;;;;55.55;7.30;;;;;;;;;;10461621;28;20048;-78
2024/03/29 22:25:28;;;;;;;56.25;5.97;;;;;;;;;;10443656;28;20674;-77
2024/03/29 22:30:31;;;;;;;56.85;7.00;;;;;;;;;;10452485;28;20043;-77
2024/03/29 22:35:32;;;;;;;46.77;5.17;;;;;;;;;;10456647;28;20070;-79
2024/03/29 22:40:38;;;;;;;67.45;8.27;;;;;;;;;;10450566;28;20044;-78
2024/03/29 22:45:40;;;;;;;59.50;8.20;;;;;;;;;;10449756;28;20041;-79
2024/03/29 22:50:42;;;;;;;54.43;6.97;;;;;;;;;;10447295;28;20045;-78
2024/03/29 22:55:44;;;;;;;65.05;9.52;;;;;;;;;;10434018;28;20036;-76
2024/03/29 23:00:47;;;;;;;41.83;6.63;;;;;;;;;;10447513;28;20620;-78
2024/03/29 23:05:49;;;;;;;57.22;9.52;;;;;;;;;;10451965;28;20033;-76
2024/03/29 23:10:52;;;;;;;31.23;4.75;;;;;;;;;;10456882;28;20045;-78
2024/03/29 23:15:57;;;;;;;52.80;7.50;;;;;;;;;;10453821;28;20033;-77
2024/03/29 23:21:00;;;;;;;45.97;5.30;;;;;;;;;;10465648;28;20387;-78
2024/03/29 23:26:02;;;;;;;57.95;7.53;;;;;;;;;;10447262;28;20065;-77
2024/03/29 23:31:06;;;;;;;40.88;5.43;;;;;;;;;;10450982;28;20048;-78
2024/03/29 23:36:08;;;;;;;45.33;6.40;;;;;;;;;;10448294;28;20061;-78
2024/03/29 23:41:09;;;;;;;44.47;6.90;;;;;;;;;;10448794;28;20064;-76
2024/03/29 23:46:14;;;;;;;54.92;7.13;;;;;;;;;;10439820;28;20395;-77
2024/03/29 23:51:16;;;;;;;72.40;9.07;;;;;;;;;;10448654;28;20033;-78
2024/03/29 23:56:18;;;;;;;56.05;8.30;;;;;;;;;;10432585;28;20040;-77
